Bl Darnell — WDE5130 — position and weather

sailwx.info

Track history (hours):
 
Tides and Currents Weather Stations Pressure Air Temp Water Temp Dewpoint Dewpoint Depression Visibility Wind Speed Wind Dir Waves Ship Positions

Bl Darnell

Owner: The Tug BL Darnell, L.L.C., Channelview, TX. More information available from US FCC via Universal Licensing System and Coast Guard Vessel Documentation Center.

Last reported at 2018-Jun-23 10:50 UTC. Time now 2018-Jun-23 11:42 UTC.
Position N 29°46' W 095°06'.

Length 22 m.

Type: Other ship. MMSI: 367362460.

Date/timePositionNaut miles runAvg speedWind from/ knotsBaromVisibWave heightAir tempDewpointWater temp
2018-Jun-23 10:50N 29°46' W 095°06'0 1.1
2018-Jun-23 10:22N 29°45' W 095°06'1 0.3
2018-Jun-23 06:41N 29°46' W 095°06'0 0.0
2018-Jun-23 06:27N 29°46' W 095°06'0 0.0
2018-Jun-23 05:52N 29°46' W 095°06'0 0.0
2018-Jun-23 05:28N 29°46' W 095°06'0 0.0
2018-Jun-23 04:58N 29°46' W 095°06'0 0.0
2018-Jun-23 04:30N 29°46' W 095°06'0 0.0
2018-Jun-23 03:53N 29°46' W 095°06'1 0.1
2018-Jun-22 14:16N 29°46' W 095°06'0 0.0
2018-Jun-22 14:00N 29°46' W 095°06'0 0.0
2018-Jun-22 13:28N 29°46' W 095°06'0 0.0
2018-Jun-22 12:58N 29°46' W 095°06'0 0.0
2018-Jun-22 12:24N 29°46' W 095°06'0 0.0
2018-Jun-22 11:50N 29°46' W 095°06'1 0.5
2018-Jun-22 09:44N 29°46' W 095°05'1 0.2
2018-Jun-22 05:56N 29°46' W 095°06'0 0.0
2018-Jun-22 05:28N 29°46' W 095°06'0 0.0
2018-Jun-22 04:56N 29°46' W 095°06'0 0.0
2018-Jun-22 04:30N 29°46' W 095°06'0 0.0
2018-Jun-22 03:45N 29°46' W 095°06'0 0.0
2018-Jun-22 03:29N 29°46' W 095°06'1 0.4
2018-Jun-22 02:07N 29°46' W 095°06'1 6.4
2018-Jun-22 01:59N 29°46' W 095°05'0 0.4
2018-Jun-22 01:16N 29°46' W 095°05'3 5.3
2018-Jun-22 00:47N 29°44' W 095°03'2 4.8
2018-Jun-22 00:17N 29°42' W 095°01'2 5.7
2018-Jun-22 00:00N 29°41' W 094°59'2 4.3
2018-Jun-21 23:30N 29°41' W 094°57'2 1.6
2018-Jun-21 22:28N 29°42' W 094°55'1 0.8
2018-Jun-21 21:15N 29°43' W 094°56'0 0.6
2018-Jun-21 21:00N 29°43' W 094°56'0 0.2
2018-Jun-21 20:27N 29°43' W 094°56'0 0.0
2018-Jun-21 19:55N 29°43' W 094°56'0 0.0
2018-Jun-21 19:21N 29°43' W 094°56'0 0.0
2018-Jun-21 18:55N 29°43' W 094°56'0 0.0
2018-Jun-21 18:26N 29°43' W 094°56'0 0.0
2018-Jun-21 17:56N 29°43' W 094°56'0 0.0
2018-Jun-21 17:28N 29°43' W 094°56'0 0.0
2018-Jun-21 16:43N 29°43' W 094°56'1 1.0
2018-Jun-21 15:47N 29°42' W 094°55'1 1.2
2018-Jun-21 15:23N 29°41' W 094°55'1 2.2
2018-Jun-21 14:47N 29°41' W 094°56'1 4.0
2018-Jun-21 14:27N 29°41' W 094°58'1 2.7
2018-Jun-21 14:00N 29°41' W 094°59'12 2.0
2018-Jun-21 08:14N 29°44' W 095°12'4 5.2
2018-Jun-21 07:25N 29°44' W 095°07'3 5.6
2018-Jun-21 06:56N 29°46' W 095°05'2 4.0
2018-Jun-21 06:27N 29°47' W 095°04'2 2.9
2018-Jun-21 05:49N 29°46' W 095°05'4 0.1
2018-Jun-20 01:43N 29°44' W 095°01'0 0.0
2018-Jun-20 01:30N 29°44' W 095°01'0 0.0
2018-Jun-18 18:40N 29°44' W 095°01'0 0.0
2018-Jun-18 18:27N 29°44' W 095°01'0 0.0
2018-Jun-18 17:58N 29°44' W 095°01'0 0.0
2018-Jun-18 16:18N 29°44' W 095°01'0 0.0
2018-Jun-18 15:14N 29°44' W 095°01'0 0.0
2018-Jun-18 14:58N 29°44' W 095°01'0 0.0
2018-Jun-18 14:26N 29°44' W 095°01'0 0.0
2018-Jun-18 13:58N 29°44' W 095°01'0 0.0
2018-Jun-18 12:53N 29°44' W 095°01'0 0.0
2018-Jun-18 11:08N 29°44' W 095°01'0 0.0
2018-Jun-18 11:00N 29°44' W 095°01'0 0.0
2018-Jun-18 10:05N 29°44' W 095°01'  
2018-Jun-16 03:09N 29°44' W 095°08'4 0.2
2018-Jun-15 01:33N 29°47' W 095°04'4 2.4
2018-Jun-14 23:54N 29°44' W 095°02'2 5.0
2018-Jun-14 23:29N 29°42' W 095°00'3 5.2
2018-Jun-14 23:00N 29°40' W 094°59'3 6.1
2018-Jun-14 22:31N 29°37' W 094°57'3 5.1
2018-Jun-14 22:01N 29°37' W 095°00'0 0.1
2018-Jun-14 21:30N 29°37' W 095°00'0 0.0
2018-Jun-14 21:01N 29°37' W 095°00'0 0.1
2018-Jun-14 20:31N 29°37' W 095°00'0 0.0
2018-Jun-14 20:01N 29°37' W 095°00'0 0.0
2018-Jun-14 19:30N 29°37' W 095°00'0 0.0
2018-Jun-14 19:00N 29°37' W 095°00'0 0.0
2018-Jun-14 18:30N 29°37' W 095°00'0 0.0
2018-Jun-14 18:00N 29°37' W 095°00'0 0.0
2018-Jun-14 17:31N 29°37' W 095°00'0 0.0
2018-Jun-14 17:01N 29°37' W 095°00'0 0.0
2018-Jun-14 16:31N 29°37' W 095°00'0 0.0
2018-Jun-14 16:01N 29°37' W 095°00'0 0.0
2018-Jun-14 15:31N 29°37' W 095°00'0 0.0
2018-Jun-14 15:01N 29°37' W 095°00'0 0.0
2018-Jun-14 14:31N 29°37' W 095°00'0 0.0
2018-Jun-14 14:01N 29°37' W 095°00'0 0.0
2018-Jun-14 13:30N 29°37' W 095°00'0 0.0
2018-Jun-14 13:00N 29°37' W 095°00'0 0.0
2018-Jun-14 12:30N 29°37' W 095°00'0 0.1
2018-Jun-14 12:00N 29°37' W 095°00'0 0.0
2018-Jun-14 11:31N 29°37' W 095°00'0 0.0
2018-Jun-14 10:59N 29°37' W 095°00'0 0.0
2018-Jun-14 10:31N 29°37' W 095°00'0 0.0
2018-Jun-14 09:59N 29°37' W 095°00'0 0.0
2018-Jun-14 09:30N 29°37' W 095°00'0 0.0
2018-Jun-14 09:00N 29°37' W 095°00'0 0.0
2018-Jun-14 08:30N 29°37' W 095°00'0 0.0
2018-Jun-14 07:59N 29°37' W 095°00'0 0.0
2018-Jun-14 07:29N 29°37' W 095°00'0 0.0
2018-Jun-14 06:58N 29°37' W 095°00'0 0.0
2018-Jun-14 06:30N 29°37' W 095°00'0 0.0
2018-Jun-14 06:01N 29°37' W 095°00'0 0.0
2018-Jun-14 05:30N 29°37' W 095°00'0 0.0
2018-Jun-14 05:00N 29°37' W 095°00'0 0.6
2018-Jun-14 04:31N 29°37' W 095°00'2 4.3
2018-Jun-14 04:00N 29°38' W 094°58'4 7.6
2018-Jun-14 03:31N 29°41' W 094°59'3 6.7
2018-Jun-14 03:00N 29°44' W 095°02'3 6.7
2018-Jun-14 02:30N 29°46' W 095°05'2 2.7
2018-Jun-14 01:55N 29°47' W 095°04'0 0.0
2018-Jun-14 01:29N 29°47' W 095°04'0 0.0
2018-Jun-14 01:00N 29°47' W 095°04'  
Track history (hours):
 
Tides and Currents Weather Stations Pressure Air Temp Water Temp Dewpoint Dewpoint Depression Visibility Wind Speed Wind Dir Waves Ship Positions

Bl Darnell

Owner: The Tug BL Darnell, L.L.C., Channelview, TX. More information available from US FCC via Universal Licensing System and Coast Guard Vessel Documentation Center.

Last reported at 2018-Jun-23 10:50 UTC. Time now 2018-Jun-23 11:42 UTC.
Position N 29°46' W 095°06'.

Length 22 m.

Type: Other ship. MMSI: 367362460.

Date/timePositionNaut miles runAvg speedWind from/ knotsBaromVisibWave heightAir tempDewpointWater temp
2018-Jun-23 10:50N 29°46' W 095°06'0 1.1
2018-Jun-23 10:22N 29°45' W 095°06'1 0.3
2018-Jun-23 06:41N 29°46' W 095°06'0 0.0
2018-Jun-23 06:27N 29°46' W 095°06'0 0.0
2018-Jun-23 05:52N 29°46' W 095°06'0 0.0
2018-Jun-23 05:28N 29°46' W 095°06'0 0.0
2018-Jun-23 04:58N 29°46' W 095°06'0 0.0
2018-Jun-23 04:30N 29°46' W 095°06'0 0.0
2018-Jun-23 03:53N 29°46' W 095°06'1 0.1
2018-Jun-22 14:16N 29°46' W 095°06'0 0.0
2018-Jun-22 14:00N 29°46' W 095°06'0 0.0
2018-Jun-22 13:28N 29°46' W 095°06'0 0.0
2018-Jun-22 12:58N 29°46' W 095°06'0 0.0
2018-Jun-22 12:24N 29°46' W 095°06'0 0.0
2018-Jun-22 11:50N 29°46' W 095°06'1 0.5
2018-Jun-22 09:44N 29°46' W 095°05'1 0.2
2018-Jun-22 05:56N 29°46' W 095°06'0 0.0
2018-Jun-22 05:28N 29°46' W 095°06'0 0.0
2018-Jun-22 04:56N 29°46' W 095°06'0 0.0
2018-Jun-22 04:30N 29°46' W 095°06'0 0.0
2018-Jun-22 03:45N 29°46' W 095°06'0 0.0
2018-Jun-22 03:29N 29°46' W 095°06'1 0.4
2018-Jun-22 02:07N 29°46' W 095°06'1 6.4
2018-Jun-22 01:59N 29°46' W 095°05'0 0.4
2018-Jun-22 01:16N 29°46' W 095°05'3 5.3
2018-Jun-22 00:47N 29°44' W 095°03'2 4.8
2018-Jun-22 00:17N 29°42' W 095°01'2 5.7
2018-Jun-22 00:00N 29°41' W 094°59'2 4.3
2018-Jun-21 23:30N 29°41' W 094°57'2 1.6
2018-Jun-21 22:28N 29°42' W 094°55'1 0.8
2018-Jun-21 21:15N 29°43' W 094°56'0 0.6
2018-Jun-21 21:00N 29°43' W 094°56'0 0.2
2018-Jun-21 20:27N 29°43' W 094°56'0 0.0
2018-Jun-21 19:55N 29°43' W 094°56'0 0.0
2018-Jun-21 19:21N 29°43' W 094°56'0 0.0
2018-Jun-21 18:55N 29°43' W 094°56'0 0.0
2018-Jun-21 18:26N 29°43' W 094°56'0 0.0
2018-Jun-21 17:56N 29°43' W 094°56'0 0.0
2018-Jun-21 17:28N 29°43' W 094°56'0 0.0
2018-Jun-21 16:43N 29°43' W 094°56'1 1.0
2018-Jun-21 15:47N 29°42' W 094°55'1 1.2
2018-Jun-21 15:23N 29°41' W 094°55'1 2.2
2018-Jun-21 14:47N 29°41' W 094°56'1 4.0
2018-Jun-21 14:27N 29°41' W 094°58'1 2.7
2018-Jun-21 14:00N 29°41' W 094°59'12 2.0
2018-Jun-21 08:14N 29°44' W 095°12'4 5.2
2018-Jun-21 07:25N 29°44' W 095°07'3 5.6
2018-Jun-21 06:56N 29°46' W 095°05'2 4.0
2018-Jun-21 06:27N 29°47' W 095°04'2 2.9
2018-Jun-21 05:49N 29°46' W 095°05'4 0.1
2018-Jun-20 01:43N 29°44' W 095°01'0 0.0
2018-Jun-20 01:30N 29°44' W 095°01'0 0.0
2018-Jun-18 18:40N 29°44' W 095°01'0 0.0
2018-Jun-18 18:27N 29°44' W 095°01'0 0.0
2018-Jun-18 17:58N 29°44' W 095°01'0 0.0
2018-Jun-18 16:18N 29°44' W 095°01'0 0.0
2018-Jun-18 15:14N 29°44' W 095°01'0 0.0
2018-Jun-18 14:58N 29°44' W 095°01'0 0.0
2018-Jun-18 14:26N 29°44' W 095°01'0 0.0
2018-Jun-18 13:58N 29°44' W 095°01'0 0.0
2018-Jun-18 12:53N 29°44' W 095°01'0 0.0
2018-Jun-18 11:08N 29°44' W 095°01'0 0.0
2018-Jun-18 11:00N 29°44' W 095°01'0 0.0
2018-Jun-18 10:05N 29°44' W 095°01'  
2018-Jun-16 03:09N 29°44' W 095°08'4 0.2
2018-Jun-15 01:33N 29°47' W 095°04'4 2.4
2018-Jun-14 23:54N 29°44' W 095°02'2 5.0
2018-Jun-14 23:29N 29°42' W 095°00'3 5.2
2018-Jun-14 23:00N 29°40' W 094°59'3 6.1
2018-Jun-14 22:31N 29°37' W 094°57'3 5.1
2018-Jun-14 22:01N 29°37' W 095°00'0 0.1
2018-Jun-14 21:30N 29°37' W 095°00'0 0.0
2018-Jun-14 21:01N 29°37' W 095°00'0 0.1
2018-Jun-14 20:31N 29°37' W 095°00'0 0.0
2018-Jun-14 20:01N 29°37' W 095°00'0 0.0
2018-Jun-14 19:30N 29°37' W 095°00'0 0.0
2018-Jun-14 19:00N 29°37' W 095°00'0 0.0
2018-Jun-14 18:30N 29°37' W 095°00'0 0.0
2018-Jun-14 18:00N 29°37' W 095°00'0 0.0
2018-Jun-14 17:31N 29°37' W 095°00'0 0.0
2018-Jun-14 17:01N 29°37' W 095°00'0 0.0
2018-Jun-14 16:31N 29°37' W 095°00'0 0.0
2018-Jun-14 16:01N 29°37' W 095°00'0 0.0
2018-Jun-14 15:31N 29°37' W 095°00'0 0.0
2018-Jun-14 15:01N 29°37' W 095°00'0 0.0
2018-Jun-14 14:31N 29°37' W 095°00'0 0.0
2018-Jun-14 14:01N 29°37' W 095°00'0 0.0
2018-Jun-14 13:30N 29°37' W 095°00'0 0.0
2018-Jun-14 13:00N 29°37' W 095°00'0 0.0
2018-Jun-14 12:30N 29°37' W 095°00'0 0.1
2018-Jun-14 12:00N 29°37' W 095°00'0 0.0
2018-Jun-14 11:31N 29°37' W 095°00'0 0.0
2018-Jun-14 10:59N 29°37' W 095°00'0 0.0
2018-Jun-14 10:31N 29°37' W 095°00'0 0.0
2018-Jun-14 09:59N 29°37' W 095°00'0 0.0
2018-Jun-14 09:30N 29°37' W 095°00'0 0.0
2018-Jun-14 09:00N 29°37' W 095°00'0 0.0
2018-Jun-14 08:30N 29°37' W 095°00'0 0.0
2018-Jun-14 07:59N 29°37' W 095°00'0 0.0
2018-Jun-14 07:29N 29°37' W 095°00'0 0.0
2018-Jun-14 06:58N 29°37' W 095°00'0 0.0
2018-Jun-14 06:30N 29°37' W 095°00'0 0.0
2018-Jun-14 06:01N 29°37' W 095°00'0 0.0
2018-Jun-14 05:30N 29°37' W 095°00'0 0.0
2018-Jun-14 05:00N 29°37' W 095°00'0 0.6
2018-Jun-14 04:31N 29°37' W 095°00'2 4.3
2018-Jun-14 04:00N 29°38' W 094°58'4 7.6
2018-Jun-14 03:31N 29°41' W 094°59'3 6.7
2018-Jun-14 03:00N 29°44' W 095°02'3 6.7
2018-Jun-14 02:30N 29°46' W 095°05'2 2.7
2018-Jun-14 01:55N 29°47' W 095°04'0 0.0
2018-Jun-14 01:29N 29°47' W 095°04'0 0.0
2018-Jun-14 01:00N 29°47' W 095°04'  

Dump ship's entire track history